createdAt,value
2018-03-15T00:00:53.675Z,12.79
2018-03-15T00:03:26.920Z,12.74
2018-03-15T00:05:54.524Z,12.65
2018-03-15T00:08:22.050Z,12.61
2018-03-15T00:10:49.579Z,12.48
2018-03-15T00:13:17.151Z,12.36
2018-03-15T00:15:44.722Z,12.42
2018-03-15T00:18:12.548Z,12.33
2018-03-15T00:20:40.083Z,12.39
2018-03-15T00:23:07.657Z,12.39
2018-03-15T00:25:35.186Z,12.31
2018-03-15T00:28:02.755Z,12.31
2018-03-15T00:30:30.292Z,12.24
2018-03-15T00:32:57.872Z,12.18
2018-03-15T00:35:25.924Z,12.23
2018-03-15T00:37:53.458Z,12.18
2018-03-15T00:40:20.990Z,12.24
2018-03-15T00:42:49.045Z,12.28
2018-03-15T00:45:16.592Z,12.31
2018-03-15T00:47:44.172Z,12.19
2018-03-15T00:50:12.648Z,12.10
2018-03-15T00:52:40.402Z,12.08
2018-03-15T00:55:09.300Z,12.10
2018-03-15T00:57:36.839Z,12.00
2018-03-15T01:00:04.395Z,11.96
2018-03-15T01:02:32.146Z,11.66
2018-03-15T01:04:59.674Z,11.69
2018-03-15T01:07:27.252Z,11.70
2018-03-15T01:09:54.944Z,11.83
2018-03-15T01:12:22.495Z,11.87
2018-03-15T01:14:50.036Z,11.82
2018-03-15T01:17:18.840Z,11.86
2018-03-15T01:19:47.047Z,11.86
2018-03-15T01:22:14.623Z,12.05
2018-03-15T01:24:42.157Z,12.03
2018-03-15T01:27:10.547Z,12.17
2018-03-15T01:29:38.127Z,12.18
2018-03-15T01:32:06.133Z,12.20
2018-03-15T01:34:33.702Z,12.18
2018-03-15T01:37:01.252Z,11.95
2018-03-15T01:39:28.813Z,11.97
2018-03-15T01:41:56.746Z,12.02
2018-03-15T01:44:24.288Z,12.01
2018-03-15T01:46:51.867Z,12.11
2018-03-15T01:49:19.403Z,12.23
2018-03-15T01:51:46.988Z,12.07
2018-03-15T01:54:14.819Z,12.03
2018-03-15T01:56:42.350Z,12.12
2018-03-15T01:59:10.792Z,12.20
2018-03-15T02:01:38.371Z,12.05
2018-03-15T02:04:06.310Z,12.18
2018-03-15T02:06:33.878Z,12.34
2018-03-15T02:09:01.459Z,12.39
2018-03-15T02:11:28.996Z,12.37
2018-03-15T02:13:56.541Z,12.45
2018-03-15T02:16:24.370Z,12.53
2018-03-15T02:18:51.964Z,12.59
2018-03-15T02:21:20.362Z,12.42
2018-03-15T02:23:47.890Z,12.20
2018-03-15T02:26:15.476Z,12.24
2018-03-15T02:28:43.222Z,12.25
2018-03-15T02:31:10.809Z,12.36
2018-03-15T02:33:38.407Z,12.17
2018-03-15T02:36:05.951Z,12.14
2018-03-15T02:38:33.488Z,12.05
2018-03-15T02:41:01.446Z,12.02
2018-03-15T02:43:28.977Z,12.06
2018-03-15T02:45:56.554Z,11.81
2018-03-15T02:48:24.082Z,11.80
2018-03-15T02:50:51.611Z,11.81
2018-03-15T02:53:19.160Z,11.86
2018-03-15T02:55:46.746Z,11.94
2018-03-15T02:58:14.347Z,11.98
2018-03-15T03:00:41.923Z,11.98
2018-03-15T03:03:09.537Z,11.94
2018-03-15T03:05:37.058Z,11.69
2018-03-15T03:08:04.656Z,11.66
2018-03-15T03:10:32.204Z,11.66
2018-03-15T03:12:59.738Z,11.65
2018-03-15T03:15:27.323Z,11.58
2018-03-15T03:17:54.864Z,11.57
2018-03-15T03:20:22.399Z,11.75
2018-03-15T03:22:49.974Z,11.80
2018-03-15T03:25:18.309Z,11.89
2018-03-15T03:27:45.880Z,11.95
2018-03-15T03:30:13.414Z,11.86
2018-03-15T03:32:40.987Z,11.85
2018-03-15T03:35:08.518Z,11.80
2018-03-15T03:37:36.063Z,11.89
2018-03-15T03:40:03.670Z,11.60
2018-03-15T03:42:31.264Z,11.73
2018-03-15T03:44:59.720Z,11.74
2018-03-15T03:47:27.307Z,11.70
2018-03-15T03:49:54.884Z,11.75
2018-03-15T03:52:22.459Z,11.62
2018-03-15T03:54:50.037Z,11.51
2018-03-15T03:57:17.611Z,11.45
2018-03-15T03:59:45.148Z,11.42
2018-03-15T04:02:12.730Z,11.51
2018-03-15T04:04:40.281Z,11.53
2018-03-15T04:07:07.855Z,11.65
2018-03-15T04:09:35.717Z,11.73
2018-03-15T04:12:03.247Z,11.82
2018-03-15T04:14:30.937Z,11.79
2018-03-15T04:16:58.528Z,11.67
2018-03-15T04:19:26.634Z,11.60
2018-03-15T04:21:54.914Z,11.55
2018-03-15T04:24:22.582Z,11.55
2018-03-15T04:26:51.037Z,11.57
2018-03-15T04:29:18.602Z,11.60
2018-03-15T04:31:46.172Z,11.61
2018-03-15T04:34:13.712Z,11.65
2018-03-15T04:36:41.291Z,11.57
2018-03-15T04:39:09.826Z,11.80
2018-03-15T04:41:37.400Z,11.87
2018-03-15T04:44:04.939Z,11.89
2018-03-15T04:46:32.796Z,11.91
2018-03-15T04:49:00.377Z,11.99
2018-03-15T04:51:28.016Z,11.99
2018-03-15T04:53:55.609Z,11.99
2018-03-15T04:56:23.147Z,12.02
2018-03-15T04:58:50.683Z,11.94
2018-03-15T05:01:18.256Z,12.02
2018-03-15T05:03:46.099Z,12.15
2018-03-15T05:06:13.678Z,12.36
2018-03-15T05:08:41.260Z,12.49
2018-03-15T05:11:09.096Z,12.87
2018-03-15T05:13:36.631Z,12.95
2018-03-15T05:16:04.206Z,12.98
2018-03-15T05:18:31.791Z,13.21
2018-03-15T05:20:59.326Z,13.29
2018-03-15T05:23:27.715Z,13.98
2018-03-15T05:25:55.689Z,14.20
2018-03-15T05:28:23.228Z,13.96
2018-03-15T05:30:50.832Z,14.19
2018-03-15T05:33:18.401Z,14.39
2018-03-15T05:35:46.521Z,14.90
2018-03-15T05:38:14.115Z,15.70
2018-03-15T05:40:41.773Z,16.08
2018-03-15T05:43:09.600Z,16.12
2018-03-15T05:45:38.417Z,15.93
2018-03-15T05:48:05.962Z,16.71
2018-03-15T05:50:34.388Z,17.57
2018-03-15T05:53:02.790Z,18.01
2018-03-15T05:55:30.376Z,18.10
2018-03-15T05:57:57.963Z,18.30
2018-03-15T06:00:26.475Z,18.22
2018-03-15T06:02:54.084Z,17.90
2018-03-15T06:05:21.658Z,17.91
2018-03-15T06:07:49.222Z,17.70
2018-03-15T06:10:17.702Z,17.55
2018-03-15T06:12:45.350Z,17.40
2018-03-15T06:15:13.563Z,17.47
2018-03-15T06:17:41.152Z,17.40
2018-03-15T06:20:09.649Z,17.14
2018-03-15T06:22:37.828Z,16.93
2018-03-15T06:25:05.466Z,16.72
2018-03-15T06:27:33.057Z,16.43
2018-03-15T06:30:00.749Z,16.49
2018-03-15T06:32:28.411Z,16.52
2018-03-15T06:34:55.943Z,16.45
2018-03-15T06:37:23.552Z,16.30
2018-03-15T06:39:51.127Z,16.33
2018-03-15T06:42:18.752Z,16.44
2018-03-15T06:44:46.360Z,16.12
2018-03-15T06:47:15.014Z,16.11
2018-03-15T06:49:43.903Z,15.97
2018-03-15T06:52:12.422Z,15.73
2018-03-15T06:54:40.060Z,16.25
2018-03-15T06:57:07.634Z,16.84
2018-03-15T06:59:35.249Z,16.94
2018-03-15T07:02:02.832Z,17.66
2018-03-15T07:04:30.479Z,17.24
2018-03-15T07:06:58.023Z,17.03
2018-03-15T07:09:26.441Z,16.84
2018-03-15T07:11:54.038Z,17.11
2018-03-15T07:14:21.590Z,17.29
2018-03-15T07:16:49.185Z,16.87
2018-03-15T07:19:16.780Z,17.08
2018-03-15T07:21:44.335Z,17.34
2018-03-15T07:24:11.922Z,16.81
2018-03-15T07:26:39.522Z,16.30
2018-03-15T07:29:07.143Z,16.20
2018-03-15T07:31:34.724Z,16.28
2018-03-15T07:34:02.307Z,16.45
2018-03-15T07:36:29.843Z,16.21
2018-03-15T07:38:57.431Z,16.00
2018-03-15T07:41:25.024Z,15.97
2018-03-15T07:43:52.562Z,16.14
2018-03-15T07:46:20.143Z,15.97
2018-03-15T07:48:48.667Z,16.27
2018-03-15T07:51:16.224Z,16.58
2018-03-15T07:53:43.810Z,16.64
2018-03-15T07:56:11.459Z,16.71
2018-03-15T07:58:38.994Z,16.37
2018-03-15T08:01:07.512Z,16.37
2018-03-15T08:03:35.142Z,16.15
2018-03-15T08:06:02.747Z,16.41
2018-03-15T08:08:30.406Z,16.38
2018-03-15T08:10:57.983Z,16.51
2018-03-15T08:15:26.685Z,16.42
2018-03-15T08:17:54.960Z,16.29
2018-03-15T08:20:22.932Z,16.30
2018-03-15T08:22:50.687Z,16.53
2018-03-15T08:25:18.242Z,16.48
2018-03-15T08:27:45.859Z,16.60
2018-03-15T08:30:14.316Z,16.93
2018-03-15T08:32:42.029Z,17.00
2018-03-15T08:35:09.572Z,17.16
2018-03-15T08:37:37.169Z,17.28
2018-03-15T08:40:04.778Z,17.20
2018-03-15T08:42:33.791Z,17.19
2018-03-15T08:45:01.416Z,17.22
2018-03-15T08:47:28.976Z,17.18
2018-03-15T08:49:56.578Z,16.99
2018-03-15T08:52:24.135Z,16.85
2018-03-15T08:54:51.932Z,16.85
2018-03-15T08:57:19.698Z,16.82
2018-03-15T08:59:47.330Z,16.64
2018-03-15T09:02:15.189Z,16.83
2018-03-15T09:04:42.965Z,16.71
2018-03-15T09:07:10.563Z,16.67
2018-03-15T09:09:38.144Z,16.68
2018-03-15T09:12:05.767Z,16.79
2018-03-15T09:14:33.348Z,16.86
2018-03-15T09:17:00.998Z,16.93
2018-03-15T09:19:28.600Z,16.84
2018-03-15T09:21:56.196Z,16.86
2018-03-15T09:24:23.747Z,16.92
2018-03-15T09:26:51.344Z,17.01
2018-03-15T09:29:19.190Z,17.14
2018-03-15T09:31:46.788Z,17.17
2018-03-15T09:34:14.360Z,17.19
2018-03-15T09:36:42.514Z,17.32
2018-03-15T09:39:10.605Z,17.55
2018-03-15T09:41:38.175Z,17.79
2018-03-15T09:44:07.516Z,17.78
2018-03-15T09:46:35.207Z,17.90
2018-03-15T09:49:02.794Z,18.04
2018-03-15T09:51:30.385Z,18.06
2018-03-15T09:53:58.004Z,18.18
2018-03-15T09:56:26.214Z,18.27
2018-03-15T09:58:53.803Z,18.18
2018-03-15T10:01:21.405Z,18.26
2018-03-15T10:03:49.005Z,18.42
2018-03-15T10:06:16.624Z,18.46
2018-03-15T10:08:44.245Z,18.57
2018-03-15T10:11:11.962Z,18.65
2018-03-15T10:13:40.469Z,18.78
2018-03-15T10:16:08.491Z,18.91
2018-03-15T10:18:36.248Z,18.94
2018-03-15T10:21:03.888Z,18.97
2018-03-15T10:23:31.884Z,19.04
2018-03-15T10:25:59.491Z,19.08
2018-03-15T10:28:27.075Z,19.08
2018-03-15T10:30:55.449Z,19.13
2018-03-15T10:33:28.611Z,19.17
2018-03-15T10:35:56.381Z,19.14
2018-03-15T10:38:23.950Z,19.36
2018-03-15T10:40:53.561Z,19.36
2018-03-15T10:43:24.531Z,19.34
2018-03-15T10:45:52.137Z,19.35
2018-03-15T10:48:19.776Z,19.32
2018-03-15T10:50:47.544Z,19.49
2018-03-15T10:53:15.173Z,19.49
2018-03-15T10:55:42.747Z,19.38
2018-03-15T10:58:10.635Z,19.43
2018-03-15T11:00:43.885Z,19.45
2018-03-15T11:03:17.456Z,19.38
2018-03-15T11:05:48.418Z,19.29
2018-03-15T11:08:21.450Z,19.26
2018-03-15T11:10:49.323Z,19.40
2018-03-15T11:13:17.044Z,19.51
2018-03-15T11:15:44.612Z,19.57
2018-03-15T11:18:12.241Z,19.48
2018-03-15T11:20:40.817Z,19.36
2018-03-15T11:23:08.381Z,19.55
2018-03-15T11:25:36.045Z,19.54
2018-03-15T11:28:03.661Z,19.57
2018-03-15T11:30:31.461Z,19.58
2018-03-15T11:32:59.073Z,19.47
2018-03-15T11:35:26.645Z,19.43
2018-03-15T11:37:54.225Z,19.48
2018-03-15T11:40:21.860Z,19.50
2018-03-15T11:42:49.484Z,19.47
2018-03-15T11:45:17.887Z,19.42
2018-03-15T11:47:45.449Z,19.35
2018-03-15T11:50:13.614Z,19.28
2018-03-15T11:52:41.192Z,19.21
2018-03-15T11:55:08.803Z,19.24
2018-03-15T11:57:37.216Z,19.28
2018-03-15T12:00:04.855Z,19.32
2018-03-15T12:02:32.419Z,19.28
2018-03-15T12:05:00.057Z,19.34
2018-03-15T12:07:28.820Z,19.45
2018-03-15T12:09:56.495Z,19.59
2018-03-15T12:12:24.801Z,19.74
2018-03-15T12:14:52.367Z,19.64
2018-03-15T12:17:19.987Z,19.53
2018-03-15T12:19:47.584Z,19.57
2018-03-15T12:22:16.120Z,19.50
2018-03-15T12:24:43.678Z,19.43
2018-03-15T12:27:11.533Z,19.42
2018-03-15T12:29:39.966Z,19.39
2018-03-15T12:32:07.531Z,19.59
2018-03-15T12:34:35.123Z,19.53
2018-03-15T12:37:03.041Z,19.49
2018-03-15T12:39:31.606Z,19.40
2018-03-15T12:41:59.159Z,19.31
2018-03-15T12:44:26.787Z,19.35
2018-03-15T12:46:54.347Z,19.39
2018-03-15T12:49:21.940Z,19.39
2018-03-15T12:51:49.499Z,19.44
2018-03-15T12:54:17.104Z,19.54
2018-03-15T12:56:44.675Z,19.61
2018-03-15T12:59:12.236Z,19.63
2018-03-15T13:01:39.832Z,19.68
2018-03-15T13:04:07.396Z,19.67
2018-03-15T13:06:35.007Z,19.61
2018-03-15T13:09:02.588Z,19.58
2018-03-15T13:11:30.391Z,19.54
2018-03-15T13:13:59.255Z,19.51
2018-03-15T13:16:26.851Z,19.56
2018-03-15T13:18:55.167Z,19.66
2018-03-15T13:21:22.784Z,19.66
2018-03-15T13:23:51.216Z,19.65
2018-03-15T13:26:18.824Z,19.68
2018-03-15T13:28:46.585Z,19.65
2018-03-15T13:31:14.224Z,19.61
2018-03-15T13:33:41.977Z,19.62
2018-03-15T13:36:09.870Z,19.77
2018-03-15T13:38:37.447Z,19.76
2018-03-15T13:41:05.143Z,19.70
2018-03-15T13:43:32.700Z,19.64
2018-03-15T13:46:00.309Z,19.67
2018-03-15T13:48:27.940Z,19.71
2018-03-15T13:50:55.553Z,19.69
2018-03-15T13:53:23.143Z,19.76
2018-03-15T13:55:50.696Z,19.86
2018-03-15T13:58:18.314Z,19.84
2018-03-15T14:00:45.891Z,19.94
2018-03-15T14:03:14.470Z,19.93
2018-03-15T14:05:43.027Z,19.95
2018-03-15T14:08:10.576Z,19.93
2018-03-15T14:10:38.184Z,19.69
2018-03-15T14:13:06.549Z,19.31
2018-03-15T14:15:34.162Z,19.36
2018-03-15T14:18:01.754Z,19.17
2018-03-15T14:20:29.354Z,19.08
2018-03-15T14:22:57.017Z,19.03
2018-03-15T14:25:25.940Z,19.10
2018-03-15T14:27:53.483Z,19.09
2018-03-15T14:30:22.273Z,19.00
2018-03-15T14:32:49.867Z,18.98
2018-03-15T14:35:17.429Z,19.09
2018-03-15T14:37:45.198Z,18.93
2018-03-15T14:40:13.573Z,18.89
2018-03-15T14:42:41.147Z,18.75
2018-03-15T14:45:09.143Z,18.71
2018-03-15T14:47:36.743Z,18.64
2018-03-15T14:50:04.936Z,18.60
2018-03-15T14:52:33.188Z,18.51
2018-03-15T14:55:00.919Z,18.42
2018-03-15T14:57:28.460Z,18.42
2018-03-15T14:59:57.529Z,18.40
2018-03-15T15:02:25.148Z,18.40
2018-03-15T15:04:52.712Z,18.43
2018-03-15T15:07:21.237Z,18.14
2018-03-15T15:09:48.829Z,18.05
2018-03-15T15:12:16.717Z,18.20
2018-03-15T15:14:44.688Z,18.25
2018-03-15T15:17:12.224Z,18.26
2018-03-15T15:19:39.828Z,18.28
2018-03-15T15:22:08.357Z,18.32
2018-03-15T15:24:36.192Z,18.37
2018-03-15T15:27:04.311Z,18.34
2018-03-15T15:29:32.845Z,18.37
2018-03-15T15:32:00.536Z,18.35
2018-03-15T15:34:28.887Z,18.35
2018-03-15T15:36:56.630Z,18.37
2018-03-15T15:39:24.167Z,18.27
2018-03-15T15:41:52.182Z,18.35
2018-03-15T15:44:20.690Z,18.35
2018-03-15T15:46:48.842Z,18.32
2018-03-15T15:49:17.249Z,18.30
2018-03-15T15:51:45.056Z,18.26
2018-03-15T15:54:12.651Z,18.15
2018-03-15T15:56:40.200Z,18.02
2018-03-15T15:59:07.800Z,17.96
2018-03-15T16:01:35.368Z,17.83
2018-03-15T16:04:02.910Z,17.78
2018-03-15T16:06:30.514Z,17.64
2018-03-15T16:08:58.246Z,17.54
2018-03-15T16:11:26.567Z,17.33
2018-03-15T16:13:54.387Z,17.23
2018-03-15T16:16:23.306Z,17.13
2018-03-15T16:18:51.649Z,17.07
2018-03-15T16:21:19.593Z,17.09
2018-03-15T16:23:47.190Z,17.03
2018-03-15T16:26:15.367Z,16.84
2018-03-15T16:28:43.011Z,16.59
2018-03-15T16:31:10.559Z,16.46
2018-03-15T16:33:38.847Z,16.41
2018-03-15T16:36:06.415Z,16.37
2018-03-15T16:38:34.395Z,16.22
2018-03-15T16:41:02.001Z,16.15
2018-03-15T16:43:29.596Z,16.12
2018-03-15T16:45:57.501Z,16.15
2018-03-15T16:48:25.098Z,16.05
2018-03-15T16:50:52.640Z,15.97
2018-03-15T16:53:20.791Z,15.87
2018-03-15T16:55:48.692Z,15.85
2018-03-15T16:58:16.280Z,15.77
2018-03-15T17:00:43.832Z,15.76
2018-03-15T17:03:12.370Z,15.78
2018-03-15T17:05:40.544Z,15.78
2018-03-15T17:08:10.346Z,15.69
2018-03-15T17:10:38.400Z,15.64
2018-03-15T17:13:05.983Z,15.66
2018-03-15T17:15:33.574Z,15.61
2018-03-15T17:18:01.992Z,15.61
2018-03-15T17:20:29.615Z,15.66
2018-03-15T17:22:57.188Z,15.65
2018-03-15T17:25:24.743Z,15.56
2018-03-15T17:27:53.217Z,15.47
2018-03-15T17:30:21.459Z,15.49
2018-03-15T17:32:49.080Z,15.29
2018-03-15T17:35:17.288Z,15.23
2018-03-15T17:37:45.157Z,15.39
2018-03-15T17:40:12.724Z,15.37
2018-03-15T17:42:41.911Z,15.33
2018-03-15T17:45:11.215Z,15.37
2018-03-15T17:47:39.004Z,15.33
2018-03-15T17:50:07.134Z,15.27
2018-03-15T17:52:35.431Z,15.32
2018-03-15T17:55:03.256Z,15.34
2018-03-15T17:57:31.461Z,15.36
2018-03-15T18:00:01.362Z,15.26
2018-03-15T18:02:29.256Z,15.24
2018-03-15T18:04:57.029Z,15.27
2018-03-15T18:07:25.054Z,15.22
2018-03-15T18:09:53.206Z,15.18
2018-03-15T18:12:21.438Z,15.14
2018-03-15T18:14:49.534Z,15.06
2018-03-15T18:17:18.009Z,15.00
2018-03-15T18:19:46.690Z,14.99
2018-03-15T18:22:14.936Z,14.98
2018-03-15T18:24:45.095Z,14.95
2018-03-15T18:27:13.297Z,15.01
2018-03-15T18:29:41.975Z,15.04
2018-03-15T18:32:11.658Z,14.95
2018-03-15T18:34:40.032Z,14.86
2018-03-15T18:37:09.049Z,14.81
2018-03-15T18:39:36.891Z,14.75
2018-03-15T18:42:05.206Z,14.69
2018-03-15T18:44:34.691Z,14.61
2018-03-15T18:47:02.945Z,14.51
2018-03-15T18:49:32.035Z,14.44
2018-03-15T18:52:00.189Z,14.49
2018-03-15T18:54:29.082Z,14.51
2018-03-15T18:56:59.104Z,14.47
2018-03-15T18:59:26.843Z,14.55
2018-03-15T19:01:56.695Z,14.58
2018-03-15T19:04:24.794Z,14.68
2018-03-15T19:06:52.772Z,14.53
2018-03-15T19:09:20.757Z,14.51
2018-03-15T19:11:48.564Z,14.44
2018-03-15T19:14:16.832Z,14.43
2018-03-15T19:16:44.990Z,14.42
2018-03-15T19:19:13.512Z,14.45
2018-03-15T19:21:41.860Z,14.42
2018-03-15T19:24:10.432Z,14.33
2018-03-15T19:26:38.476Z,14.43
2018-03-15T19:29:07.953Z,14.42
2018-03-15T19:31:37.956Z,14.44
2018-03-15T19:34:06.631Z,14.34
2018-03-15T19:36:35.063Z,14.41
2018-03-15T19:39:03.454Z,14.42
2018-03-15T19:41:31.561Z,14.33
2018-03-15T19:44:00.166Z,14.34
2018-03-15T19:46:30.374Z,14.38
2018-03-15T19:48:58.855Z,14.36
2018-03-15T19:51:27.127Z,14.41
2018-03-15T19:53:55.816Z,14.44
2018-03-15T19:56:25.378Z,14.41
2018-03-15T19:58:55.043Z,14.35
2018-03-15T20:01:23.411Z,14.40
2018-03-15T20:03:51.672Z,14.39
2018-03-15T20:06:19.996Z,14.35
2018-03-15T20:08:48.233Z,14.21
2018-03-15T20:11:16.517Z,14.07
2018-03-15T20:13:44.466Z,14.11
2018-03-15T20:16:15.820Z,14.16
2018-03-15T20:18:44.202Z,14.16
2018-03-15T20:21:12.470Z,14.09
2018-03-15T20:23:46.389Z,14.13
2018-03-15T20:26:17.500Z,14.18
2018-03-15T20:28:45.375Z,14.15
2018-03-15T20:31:14.145Z,14.22
2018-03-15T20:33:47.912Z,14.30
2018-03-15T20:36:17.877Z,14.39
2018-03-15T20:38:45.763Z,14.46
2018-03-15T20:41:19.038Z,14.49
2018-03-15T20:43:46.612Z,14.68
2018-03-15T20:46:19.633Z,14.82
2018-03-15T20:48:52.731Z,14.98
2018-03-15T20:51:21.789Z,14.72
2018-03-15T20:53:49.396Z,14.59
2018-03-15T20:56:16.964Z,14.33
2018-03-15T20:58:44.931Z,14.06
2018-03-15T21:01:12.676Z,13.96
2018-03-15T21:03:41.285Z,13.73
2018-03-15T21:06:08.920Z,13.49
2018-03-15T21:08:38.916Z,13.43
2018-03-15T21:11:07.813Z,13.43
2018-03-15T21:13:35.426Z,13.19
2018-03-15T21:16:02.990Z,12.97
2018-03-15T21:18:31.388Z,12.84
2018-03-15T21:20:58.971Z,12.87
2018-03-15T21:23:27.817Z,13.02
2018-03-15T21:25:56.383Z,13.15
2018-03-15T21:28:24.783Z,13.30
2018-03-15T21:30:52.388Z,13.10
2018-03-15T21:33:21.317Z,12.90
2018-03-15T21:35:49.780Z,12.66
2018-03-15T21:38:17.396Z,12.39
2018-03-15T21:40:44.982Z,12.20
2018-03-15T21:43:13.420Z,12.52
2018-03-15T21:45:40.967Z,12.83
2018-03-15T21:48:08.592Z,13.14
2018-03-15T21:50:37.329Z,13.41
2018-03-15T21:53:06.483Z,13.63
2018-03-15T21:55:34.052Z,13.83
2018-03-15T21:58:02.347Z,13.93
2018-03-15T22:00:29.946Z,13.56
2018-03-15T22:02:57.669Z,13.24
2018-03-15T22:05:25.474Z,12.44
2018-03-15T22:07:53.364Z,12.24
2018-03-15T22:10:20.967Z,11.94
2018-03-15T22:12:48.510Z,11.78
2018-03-15T22:15:16.082Z,12.10
2018-03-15T22:17:43.855Z,12.56
2018-03-15T22:20:11.417Z,12.93
2018-03-15T22:22:39.165Z,13.23
2018-03-15T22:25:06.765Z,13.44
2018-03-15T22:27:34.368Z,13.66
2018-03-15T22:30:01.961Z,13.74
2018-03-15T22:32:29.618Z,13.88
2018-03-15T22:34:57.152Z,13.99
2018-03-15T22:37:25.262Z,13.93
2018-03-15T22:39:52.852Z,13.93
2018-03-15T22:42:20.461Z,13.98
2018-03-15T22:44:48.071Z,14.04
2018-03-15T22:47:15.672Z,13.84
2018-03-15T22:49:43.228Z,13.87
2018-03-15T22:52:10.840Z,13.76
2018-03-15T22:54:38.395Z,13.77
2018-03-15T22:57:05.964Z,13.26
2018-03-15T22:59:33.573Z,12.58
2018-03-15T23:02:01.115Z,12.02
2018-03-15T23:04:29.889Z,11.64
2018-03-15T23:06:57.483Z,11.80
2018-03-15T23:09:25.094Z,11.51
2018-03-15T23:11:52.677Z,11.35
2018-03-15T23:14:20.239Z,11.56
2018-03-15T23:16:48.107Z,12.06
2018-03-15T23:19:15.703Z,12.21
2018-03-15T23:21:43.271Z,12.30
2018-03-15T23:24:10.845Z,11.89
2018-03-15T23:26:39.250Z,12.21
2018-03-15T23:29:07.479Z,12.52
2018-03-15T23:31:35.037Z,12.80
2018-03-15T23:34:02.638Z,12.64
2018-03-15T23:36:30.222Z,12.72
2018-03-15T23:38:57.771Z,12.72
2018-03-15T23:41:25.364Z,12.90
2018-03-15T23:43:52.977Z,12.96
2018-03-15T23:46:20.533Z,12.77
2018-03-15T23:48:48.875Z,12.40
2018-03-15T23:51:16.478Z,12.67
2018-03-15T23:53:44.835Z,12.93
2018-03-15T23:56:13.354Z,12.50
2018-03-15T23:58:41.403Z,12.51
